Time,TemperatureF,DewpointF,PressureIn,WindDirection,WindDirectionDegrees,WindSpeedMPH,WindSpeedGustMPH,Humidity,HourlyPrecipIn,Conditions,Clouds,dailyrainin,SolarRadiationWatts/m^2,SoftwareType,DateUTC
2013-02-19 00:01:00,6.0,3.0,-100.00,WNW,285,2.0,4.0,89,0.00,,,0.00,0.000000,,2013-02-19 09:01:00,
2013-02-19 00:11:00,6.0,3.0,-100.00,WNW,285,2.0,4.0,89,0.00,,,0.00,0.000000,,2013-02-19 09:11:00,
2013-02-19 00:21:00,6.0,3.0,-100.00,WNW,285,2.0,4.0,89,0.00,,,0.00,0.000000,,2013-02-19 09:21:00,
2013-02-19 00:31:00,6.0,3.0,-100.00,WNW,285,2.0,4.0,89,0.00,,,0.00,0.000000,,2013-02-19 09:31:00,
2013-02-19 00:53:00,5.0,2.0,-100.00,WSW,256,1.0,5.0,89,0.00,,,0.00,0.000000,,2013-02-19 09:53:00,
2013-02-19 01:01:00,5.0,2.0,-100.00,WSW,256,1.0,5.0,89,0.00,,,0.00,0.000000,,2013-02-19 10:01:00,
2013-02-19 01:11:00,5.0,2.0,-100.00,WSW,256,1.0,5.0,89,0.00,,,0.00,0.000000,,2013-02-19 10:11:00,
2013-02-19 01:21:00,5.0,2.0,-100.00,WSW,256,1.0,5.0,89,0.00,,,0.00,0.000000,,2013-02-19 10:21:00,
2013-02-19 01:31:00,5.0,2.0,-100.00,WSW,256,1.0,5.0,89,0.00,,,0.00,0.000000,,2013-02-19 10:31:00,
2013-02-19 01:52:00,4.0,1.0,-100.00,NW,315,3.0,7.0,89,0.00,,,0.00,0.000000,,2013-02-19 10:52:00,
2013-02-19 02:01:00,4.0,1.0,-100.00,NW,315,3.0,7.0,89,0.00,,,0.00,0.000000,,2013-02-19 11:01:00,
2013-02-19 02:11:00,4.0,1.0,-100.00,NW,315,3.0,7.0,89,0.00,,,0.00,0.000000,,2013-02-19 11:11:00,
2013-02-19 02:21:00,4.0,1.0,-100.00,NW,315,3.0,7.0,89,0.00,,,0.00,0.000000,,2013-02-19 11:21:00,
2013-02-19 02:31:00,4.0,1.0,-100.00,NW,315,3.0,7.0,89,0.00,,,0.00,0.000000,,2013-02-19 11:31:00,
2013-02-19 02:52:00,4.0,1.0,-100.00,NNW,330,3.0,7.0,89,0.00,,,0.00,0.000000,,2013-02-19 11:52:00,
2013-02-19 03:01:00,4.0,1.0,-100.00,NNW,330,3.0,7.0,89,0.00,,,0.00,0.000000,,2013-02-19 12:01:00,
2013-02-19 03:12:00,4.0,1.0,-100.00,NNW,330,3.0,7.0,89,0.00,,,0.00,0.000000,,2013-02-19 12:12:00,
2013-02-19 03:21:00,4.0,1.0,-100.00,NNW,330,3.0,7.0,89,0.00,,,0.00,0.000000,,2013-02-19 12:21:00,
2013-02-19 03:32:00,4.0,1.0,-100.00,NNW,330,3.0,7.0,89,0.00,,,0.00,0.000000,,2013-02-19 12:32:00,
2013-02-19 03:52:00,5.0,2.0,-100.00,WNW,293,3.0,8.0,89,0.00,,,0.00,0.000000,,2013-02-19 12:52:00,
2013-02-19 04:02:00,5.0,2.0,-100.00,WNW,293,3.0,8.0,89,0.00,,,0.00,0.000000,,2013-02-19 13:02:00,
2013-02-19 04:11:00,5.0,2.0,-100.00,WNW,293,3.0,8.0,89,0.00,,,0.00,0.000000,,2013-02-19 13:11:00,
2013-02-19 04:22:00,5.0,2.0,-100.00,WNW,293,3.0,8.0,89,0.00,,,0.00,0.000000,,2013-02-19 13:22:00,
2013-02-19 04:31:00,5.0,2.0,-100.00,WNW,293,3.0,8.0,89,0.00,,,0.00,0.000000,,2013-02-19 13:31:00,
2013-02-19 04:52:00,6.0,4.0,-100.00,NNW,347,4.0,9.0,90,0.00,,,0.00,0.000000,,2013-02-19 13:52:00,
2013-02-19 05:01:00,6.0,4.0,-100.00,NNW,347,4.0,9.0,90,0.00,,,0.00,0.000000,,2013-02-19 14:01:00,
2013-02-19 05:11:00,6.0,4.0,-100.00,NNW,347,4.0,9.0,90,0.00,,,0.00,0.000000,,2013-02-19 14:11:00,
2013-02-19 05:21:00,6.0,4.0,-100.00,NNW,347,4.0,9.0,90,0.00,,,0.00,0.000000,,2013-02-19 14:21:00,
2013-02-19 05:32:00,6.0,4.0,-100.00,NNW,347,4.0,9.0,90,0.00,,,0.00,0.000000,,2013-02-19 14:32:00,
2013-02-19 05:52:00,5.0,2.0,-100.00,NW,316,3.0,8.0,89,0.00,,,0.00,0.000000,,2013-02-19 14:52:00,
2013-02-19 06:01:00,5.0,2.0,-100.00,NW,316,3.0,8.0,89,0.00,,,0.00,0.000000,,2013-02-19 15:01:00,
2013-02-19 06:11:00,5.0,2.0,-100.00,NW,316,3.0,8.0,89,0.00,,,0.00,0.000000,,2013-02-19 15:11:00,
2013-02-19 06:21:00,5.0,2.0,-100.00,NW,316,3.0,8.0,89,0.00,,,0.00,0.000000,,2013-02-19 15:21:00,
2013-02-19 06:31:00,5.0,2.0,-100.00,NW,316,3.0,8.0,89,0.00,,,0.00,0.000000,,2013-02-19 15:31:00,
2013-02-19 06:52:00,6.0,4.0,-100.00,NW,318,4.0,8.0,90,0.00,,,0.00,0.000000,,2013-02-19 15:52:00,
2013-02-19 07:01:00,6.0,4.0,-100.00,NW,318,4.0,8.0,90,0.00,,,0.00,0.000000,,2013-02-19 16:01:00,
2013-02-19 07:11:00,6.0,4.0,-100.00,NW,318,4.0,8.0,90,0.00,,,0.00,0.000000,,2013-02-19 16:11:00,
2013-02-19 07:21:00,6.0,4.0,-100.00,NW,318,4.0,8.0,90,0.00,,,0.00,0.000000,,2013-02-19 16:21:00,
2013-02-19 07:31:00,6.0,4.0,-100.00,NW,318,4.0,8.0,90,0.00,,,0.00,0.000000,,2013-02-19 16:31:00,
2013-02-19 07:52:00,11.0,9.0,-100.00,NW,326,4.0,8.0,92,0.00,,,0.00,0.000000,,2013-02-19 16:52:00,
2013-02-19 08:01:00,11.0,9.0,-100.00,NW,326,4.0,8.0,92,0.00,,,0.00,0.000000,,2013-02-19 17:01:00,
2013-02-19 08:11:00,11.0,9.0,-100.00,NW,326,4.0,8.0,92,0.00,,,0.00,0.000000,,2013-02-19 17:11:00,
2013-02-19 08:21:00,11.0,9.0,-100.00,NW,326,4.0,8.0,92,0.00,,,0.00,0.000000,,2013-02-19 17:21:00,
2013-02-19 08:31:00,11.0,9.0,-100.00,NW,326,4.0,8.0,92,0.00,,,0.00,0.000000,,2013-02-19 17:31:00,
2013-02-19 08:52:00,12.0,10.0,-100.00,NNW,335,4.0,6.0,93,0.00,,,0.00,0.000000,,2013-02-19 17:52:00,
2013-02-19 09:01:00,12.0,10.0,-100.00,NNW,335,4.0,6.0,93,0.00,,,0.00,0.000000,,2013-02-19 18:01:00,
2013-02-19 09:11:00,12.0,10.0,-100.00,NNW,335,4.0,6.0,93,0.00,,,0.00,0.000000,,2013-02-19 18:11:00,
2013-02-19 09:21:00,12.0,10.0,-100.00,NNW,335,4.0,6.0,93,0.00,,,0.00,0.000000,,2013-02-19 18:21:00,
2013-02-19 09:31:00,12.0,10.0,-100.00,NNW,335,4.0,6.0,93,0.00,,,0.00,0.000000,,2013-02-19 18:31:00,
2013-02-19 09:52:00,14.0,12.0,-100.00,NW,309,3.0,6.0,93,0.00,,,0.00,17.000000,,2013-02-19 18:52:00,
2013-02-19 10:01:00,14.0,12.0,-100.00,NW,309,3.0,6.0,93,0.00,,,0.00,17.000000,,2013-02-19 19:01:00,
2013-02-19 10:31:00,14.0,12.0,-100.00,NW,309,3.0,6.0,93,0.00,,,0.00,17.000000,,2013-02-19 19:31:00,
2013-02-19 10:52:00,15.0,13.0,-100.00,WNW,301,5.0,8.0,92,0.00,,,0.00,55.000000,,2013-02-19 19:52:00,
2013-02-19 11:01:00,15.0,13.0,-100.00,WNW,301,5.0,8.0,92,0.00,,,0.00,55.000000,,2013-02-19 20:01:00,
2013-02-19 11:11:00,15.0,13.0,-100.00,WNW,301,5.0,8.0,92,0.00,,,0.00,55.000000,,2013-02-19 20:11:00,
2013-02-19 11:21:00,15.0,13.0,-100.00,WNW,301,5.0,8.0,92,0.00,,,0.00,55.000000,,2013-02-19 20:21:00,
2013-02-19 11:31:00,15.0,13.0,-100.00,WNW,301,5.0,8.0,92,0.00,,,0.00,55.000000,,2013-02-19 20:31:00,
2013-02-19 11:52:00,19.0,17.0,-100.00,NW,310,3.0,7.0,93,0.00,,,0.00,71.000000,,2013-02-19 20:52:00,
2013-02-19 12:01:00,19.0,17.0,-100.00,NW,310,3.0,7.0,93,0.00,,,0.00,71.000000,,2013-02-19 21:01:00,
2013-02-19 12:52:00,21.0,20.0,-100.00,WNW,298,2.0,5.0,94,0.00,,,0.00,76.000000,,2013-02-19 21:52:00,
2013-02-19 13:01:00,21.0,20.0,-100.00,WNW,298,2.0,5.0,94,0.00,,,0.00,76.000000,,2013-02-19 22:01:00,
2013-02-19 13:52:00,23.0,21.0,-100.00,North,3,2.0,4.0,92,0.00,,,0.00,108.000000,,2013-02-19 22:52:00,
2013-02-19 14:01:00,23.0,21.0,-100.00,North,3,2.0,4.0,92,0.00,,,0.00,108.000000,,2013-02-19 23:01:00,
2013-02-19 14:52:00,25.0,23.0,-100.00,WNW,288,4.0,8.0,92,0.00,,,0.00,113.000000,,2013-02-19 23:52:00,
2013-02-19 15:01:00,25.0,23.0,-100.00,WNW,288,4.0,8.0,92,0.00,,,0.00,113.000000,,2013-02-20 00:01:00,
2013-02-19 15:52:00,25.0,22.0,-100.00,North,352,2.0,6.0,89,0.00,,,0.00,72.000000,,2013-02-20 00:52:00,
2013-02-19 16:02:00,25.0,22.0,-100.00,North,352,2.0,6.0,89,0.00,,,0.00,72.000000,,2013-02-20 01:02:00,
2013-02-19 16:52:00,25.0,23.0,-100.00,NW,312,2.0,4.0,91,0.00,,,0.00,26.000000,,2013-02-20 01:52:00,
2013-02-19 17:01:00,25.0,23.0,-100.00,NW,312,2.0,4.0,91,0.00,,,0.00,26.000000,,2013-02-20 02:01:00,
2013-02-19 17:52:00,24.0,21.0,-100.00,NNW,337,3.0,8.0,89,0.00,,,0.00,5.000000,,2013-02-20 02:52:00,
2013-02-19 18:01:00,24.0,21.0,-100.00,NNW,337,3.0,8.0,89,0.00,,,0.00,5.000000,,2013-02-20 03:01:00,
2013-02-19 18:52:00,23.0,21.0,-100.00,NW,320,3.0,7.0,90,0.00,,,0.00,0.000000,,2013-02-20 03:52:00,
2013-02-19 19:01:00,23.0,21.0,-100.00,NW,320,3.0,7.0,90,0.00,,,0.00,0.000000,,2013-02-20 04:01:00,
2013-02-19 19:52:00,24.0,21.0,-100.00,NNW,333,3.0,7.0,89,0.00,,,0.00,0.000000,,2013-02-20 04:52:00,
2013-02-19 20:02:00,24.0,21.0,-100.00,NNW,333,3.0,7.0,89,0.00,,,0.00,0.000000,,2013-02-20 05:02:00,
2013-02-19 20:52:00,24.0,22.0,-100.00,NW,311,3.0,6.0,91,0.00,,,0.00,0.000000,,2013-02-20 05:52:00,
2013-02-19 21:01:00,24.0,22.0,-100.00,NW,311,3.0,6.0,91,0.00,,,0.00,0.000000,,2013-02-20 06:01:00,
2013-02-19 21:52:00,24.0,22.0,-100.00,WNW,297,4.0,7.0,90,0.00,,,0.00,0.000000,,2013-02-20 06:52:00,
2013-02-19 22:01:00,24.0,22.0,-100.00,WNW,297,4.0,7.0,90,0.00,,,0.00,0.000000,,2013-02-20 07:01:00,
2013-02-19 22:52:00,23.0,21.0,-100.00,SW,233,4.0,7.0,90,0.00,,,0.00,0.000000,,2013-02-20 07:52:00,
2013-02-19 23:11:00,23.0,21.0,-100.00,SW,233,4.0,7.0,90,0.00,,,0.00,0.000000,,2013-02-20 08:11:00,
2013-02-19 23:21:00,23.0,21.0,-100.00,SW,233,4.0,7.0,90,0.00,,,0.00,0.000000,,2013-02-20 08:21:00,
2013-02-19 23:31:00,23.0,21.0,-100.00,SW,233,4.0,7.0,90,0.00,,,0.00,0.000000,,2013-02-20 08:31:00,
2013-02-19 23:52:00,21.0,19.0,-100.00,SW,235,5.0,8.0,92,0.00,,,0.00,0.000000,,2013-02-20 08:52:00,